greek

ΠΛΗΡΟΦΟΡΙΕΣ ΚΑΙΡΟΥ

english


LGTT 251230Z 36007KT 6000 FEW010 BKN025 01/M02 Q1022 RMK BKN060
TAF LGTT 250700Z 2509/2518 02018KT 9999 FEW010 BKN020 TEMPO 2509/2515 02020G35KT PROB40 TEMPO 2509/2516 4000 SN PROB30 TEMPO 2509/2512 1000 TSSN BKN005 SCT018CB OVC020

 Print LGTT local weather
 EMY AVIATION
 EMY LGTT
 Forecast LGTT
 EMY LGMG
 EMY LGEL
 EMY LGTG
 EMY LGAV
 EMY LGAT
 Latest METAR Reports (OGIMET)
 Latest TAF Reports (OGIMET)
 Greece Forecast
 www.windyty.com
 www.meteo.gr
 SAT 24h
 UK Met Office
 www.kifissiameteo.gr
 forecast.uoa.gr
 www.ntua.gr/weather/
 www.autorouter.eu/gramet
 https://www.aviationweather.gov/sigmet/

Στο τηλέφωνο 210-3533689 μπορείτε να πάρετε πληροφορίες για την πτήση σας σε οποιοδήποτε σημείο της χώρας.